Anniston Metropolitan Airport
KANB : now visible

Airfield :











YOU CAN JOIN US ON...

 
LOGIN :

Register | Disclaimer

   EN    FR    IT 

 









Legend :    VFR   Marginal VFR   IFR   Intensive IFR   Very Intensive IFR
Visi :
Ceiling :
>= 8 km
>= 3000ft
5 to 8 km
1000 to 3000 ft
1500m to 5 km
500 to 1000 ft
800 to 1500m
200 to 500 ft
< 800m
< 200 ft
Symbols :   Thunderstorms  Fog  Heavy snow  Heavy precipitations  Wind > 20 kt







- Airport Elevation : 612 ft
- IATA code : ANB


KANB - Anniston Metropolitan

CURRENT METAR :
  • 191153Z AUTO 27010G16KT 4SM BR FEW005 BKN009 OVC023 17/16 A2951 RMK AO2 RAE1057B36E48 CIG 006V011 SLP986 P0000 60038 70156 T01670156 10172 20167 51001

EXPIRED METARs :
  • 191136Z AUTO 26009KT 6SM -RA BR SCT009 BKN014 OVC023 17/16 A2950 RMK AO2 RAE1057B36 P0000 T01720161
  • 191120Z AUTO 22006KT 10SM SCT010 BKN021 OVC030 17/16 A2951 RMK AO2 LTG DSNT SE RAE1057 P0000 T01720161
  • 191105Z AUTO 22007KT 10SM BKN008 BKN020 OVC030 17/16 A2951 RMK AO2 RAE1057 P0000 T01720161
  • 191053Z AUTO 22006KT 10SM -RA SCT006 BKN021 OVC070 17/17 A2951 RMK AO2 RAE04B17 SLP986 P0006 T01720167
  • 191040Z AUTO 22005KT 8SM -RA SCT006 BKN037 OVC070 17/16 A2950 RMK AO2 RAE04B17 P0005 T01720161
  • 191012Z AUTO 20005KT 10SM SCT008 BKN026 OVC031 17/17 A2951 RMK AO2 RAE04 P0000 T01720167
  • 190953Z AUTO 28005KT 8SM -RA BKN010 BKN015 OVC031 17/16 A2950 RMK AO2 RAB36 SLP984 P0001 T01720161

TAF KANB
Valid from the 19 at 12:00 until the 20 at 12:00 UTC


191128Z 1912/2012 24010G16KT P6SM VCSH BKN007 OVC015
FM191800 30013KT 6SM -RA BKN009 OVC025
FM192100 25018G28KT 3SM -RA OVC015
FM200300 24012KT 3SM -RA OVC007
FM200900 25009KT 4SM BR VCSH SCT005 OVC007
KZTL FIR / North America



MET'MAP, your aeronautical weather chart ! - Copyright ORBIFLY December 2007 - Disclaimer

ORBIFLY MET'MAP TEAM :

Programming & Development : Alexandra Zaïnal
Concept & Development : Baudouin d'Aumeries
Co-Development & Prog : Marc-Olivier Méhu
Technical & hardware support : Manuel Goepfert

Contact : metmap@orbifly.com




SOURCES & CREDITS :

   NOAA       Earth
Advisory